createdAt,value
2022-08-03T00:00:59.844Z,16.67
2022-08-03T00:06:05.417Z,16.76
2022-08-03T00:11:09.580Z,16.79
2022-08-03T00:16:13.540Z,16.81
2022-08-03T00:21:19.009Z,16.92
2022-08-03T00:26:23.222Z,16.96
2022-08-03T00:31:44.971Z,16.86
2022-08-03T00:36:52.612Z,17.05
2022-08-03T00:41:56.684Z,16.86
2022-08-03T00:47:00.638Z,16.58
2022-08-03T00:52:08.007Z,16.50
2022-08-03T00:57:13.816Z,16.64
2022-08-03T01:02:18.019Z,16.63
2022-08-03T01:07:34.808Z,16.40
2022-08-03T01:12:46.554Z,15.96
2022-08-03T01:17:57.545Z,15.67
2022-08-03T01:23:30.954Z,15.62
2022-08-03T01:28:49.668Z,15.63
2022-08-03T01:34:01.483Z,15.83
2022-08-03T01:39:09.587Z,15.74
2022-08-03T01:44:29.068Z,15.79
2022-08-03T01:49:40.671Z,15.71
2022-08-03T01:54:47.873Z,15.47
2022-08-03T01:59:53.127Z,15.38
2022-08-03T02:04:59.940Z,15.15
2022-08-03T02:10:06.412Z,15.13
2022-08-03T02:15:12.259Z,14.99
2022-08-03T02:20:20.976Z,15.00
2022-08-03T02:25:25.030Z,14.92
2022-08-03T02:30:37.918Z,15.13
2022-08-03T02:35:45.216Z,14.98
2022-08-03T02:40:52.559Z,14.93
2022-08-03T02:45:56.534Z,14.89
2022-08-03T02:51:04.580Z,14.92
2022-08-03T02:56:09.916Z,14.95
2022-08-03T03:01:15.433Z,15.00
2022-08-03T03:06:21.644Z,14.81
2022-08-03T03:11:28.000Z,14.90
2022-08-03T03:16:32.798Z,14.94
2022-08-03T03:21:39.075Z,14.83
2022-08-03T03:26:44.662Z,14.94
2022-08-03T03:31:48.805Z,14.95
2022-08-03T03:36:54.158Z,14.99
2022-08-03T03:41:58.551Z,15.13
2022-08-03T03:47:02.557Z,15.32
2022-08-03T03:52:09.505Z,15.49
2022-08-03T03:57:13.943Z,15.45
2022-08-03T04:02:18.127Z,15.58
2022-08-03T04:07:43.257Z,15.77
2022-08-03T04:12:50.368Z,16.05
2022-08-03T04:17:56.976Z,15.88
2022-08-03T04:23:04.065Z,15.61
2022-08-03T04:28:30.450Z,15.69
2022-08-03T04:33:38.267Z,15.87
2022-08-03T04:39:02.065Z,16.10
2022-08-03T04:44:07.728Z,16.35
2022-08-03T04:49:12.802Z,16.59
2022-08-03T04:54:18.329Z,16.73
2022-08-03T04:59:22.345Z,16.97
2022-08-03T05:04:26.290Z,17.44
2022-08-03T05:09:49.672Z,17.85
2022-08-03T05:14:55.999Z,18.20
2022-08-03T05:20:01.803Z,18.55
2022-08-03T05:25:07.854Z,18.65
2022-08-03T05:30:27.306Z,18.09
2022-08-03T05:36:01.011Z,17.89
2022-08-03T05:41:21.408Z,18.20
2022-08-03T05:46:26.194Z,19.04
2022-08-03T05:51:30.247Z,19.06
2022-08-03T05:56:35.622Z,19.09
2022-08-03T06:01:39.733Z,19.92
2022-08-03T06:06:44.380Z,19.87
2022-08-03T06:11:49.712Z,20.28
2022-08-03T06:16:53.670Z,20.70
2022-08-03T06:21:57.618Z,21.35
2022-08-03T06:27:03.045Z,22.03
2022-08-03T06:32:07.599Z,22.45
2022-08-03T06:37:12.107Z,22.22
2022-08-03T06:42:17.613Z,23.21
2022-08-03T06:47:21.844Z,23.59
2022-08-03T06:52:38.059Z,24.34
2022-08-03T06:57:44.326Z,24.36
2022-08-03T07:02:48.289Z,24.04
2022-08-03T07:07:59.256Z,25.25
2022-08-03T07:13:05.018Z,25.43
2022-08-03T07:18:09.085Z,25.52
2022-08-03T07:23:18.871Z,25.31
2022-08-03T07:28:24.794Z,25.94
2022-08-03T07:33:28.843Z,25.78
2022-08-03T07:38:32.883Z,25.30
2022-08-03T07:43:38.228Z,26.22
2022-08-03T07:48:42.229Z,25.07
2022-08-03T07:53:47.434Z,23.89
2022-08-03T07:58:53.911Z,23.91
2022-08-03T08:03:57.963Z,23.92
2022-08-03T08:09:02.403Z,23.96
2022-08-03T08:14:08.120Z,24.04
2022-08-03T08:19:14.475Z,24.60
2022-08-03T08:24:19.759Z,25.03
2022-08-03T08:29:25.844Z,24.46
2022-08-03T08:34:29.816Z,24.12
2022-08-03T08:39:36.354Z,23.78
2022-08-03T08:44:41.782Z,23.49
2022-08-03T08:50:04.031Z,23.42
2022-08-03T08:55:17.204Z,23.17
2022-08-03T09:00:22.624Z,22.87
2022-08-03T09:05:41.545Z,22.33
2022-08-03T09:10:50.698Z,21.51
2022-08-03T09:16:14.506Z,20.98
2022-08-03T09:21:31.757Z,20.55
2022-08-03T09:26:38.221Z,20.48
2022-08-03T09:31:46.097Z,20.52
2022-08-03T09:36:52.415Z,20.66
2022-08-03T09:42:07.702Z,21.05
2022-08-03T09:47:14.446Z,21.43
2022-08-03T09:52:38.412Z,21.89
2022-08-03T09:57:46.363Z,22.38
2022-08-03T10:03:05.435Z,23.09
2022-08-03T10:08:16.806Z,23.94
2022-08-03T10:13:23.165Z,26.16
2022-08-03T10:18:31.158Z,28.79
2022-08-03T10:23:36.792Z,29.20
2022-08-03T10:28:45.475Z,29.75
2022-08-03T10:33:53.516Z,27.98
2022-08-03T10:38:58.186Z,25.62
2022-08-03T10:44:07.223Z,25.57
2022-08-03T10:49:16.711Z,26.62
2022-08-03T10:54:56.946Z,29.99
2022-08-03T11:00:04.954Z,29.40
2022-08-03T11:05:28.403Z,31.08
2022-08-03T11:10:33.961Z,30.75
2022-08-03T11:15:38.814Z,31.11
2022-08-03T11:20:48.871Z,30.65
2022-08-03T11:26:12.712Z,27.89
2022-08-03T11:31:50.931Z,31.51
2022-08-03T11:37:27.512Z,31.21
2022-08-03T11:42:48.443Z,32.02
2022-08-03T11:47:55.851Z,32.15
2022-08-03T11:53:01.697Z,31.04
2022-08-03T11:59:15.375Z,30.48
2022-08-03T12:03:34.134Z,27.77
2022-08-03T12:08:39.901Z,29.17
2022-08-03T12:14:45.803Z,30.61
2022-08-03T12:19:09.434Z,27.73
2022-08-03T12:24:14.912Z,26.64
2022-08-03T12:29:19.470Z,26.15
2022-08-03T12:34:23.389Z,29.13
2022-08-03T12:39:30.828Z,28.68
2022-08-03T12:44:37.409Z,27.36
2022-08-03T12:49:49.143Z,26.93
2022-08-03T12:54:59.602Z,26.08
2022-08-03T13:00:21.447Z,26.48
2022-08-03T13:05:33.132Z,27.31
2022-08-03T13:10:38.721Z,26.48
2022-08-03T13:15:47.710Z,26.10
2022-08-03T13:20:52.337Z,25.68
2022-08-03T13:25:57.706Z,27.23
2022-08-03T13:31:02.372Z,28.19
2022-08-03T13:36:07.851Z,28.93
2022-08-03T13:41:15.467Z,29.05
2022-08-03T13:46:20.425Z,29.11
2022-08-03T13:51:24.677Z,29.20
2022-08-03T13:56:31.236Z,29.55
2022-08-03T14:01:54.088Z,29.15
2022-08-03T14:06:59.109Z,28.83
2022-08-03T14:12:08.038Z,27.41
2022-08-03T14:17:12.816Z,27.73
2022-08-03T14:22:20.376Z,27.10
2022-08-03T14:27:25.801Z,28.12
2022-08-03T14:32:29.851Z,28.01
2022-08-03T14:37:34.096Z,26.96
2022-08-03T14:42:39.476Z,27.32
2022-08-03T14:50:29.294Z,26.63
2022-08-03T14:53:07.448Z,26.19
2022-08-03T14:58:21.214Z,26.34
2022-08-03T15:03:26.625Z,26.77
2022-08-03T15:08:31.820Z,27.42
2022-08-03T15:13:39.061Z,27.13
2022-08-03T15:18:43.180Z,26.20
2022-08-03T15:23:47.126Z,25.94
2022-08-03T15:28:52.792Z,26.28
2022-08-03T15:33:56.791Z,26.68
2022-08-03T15:39:01.866Z,26.38
2022-08-03T15:44:09.283Z,26.06
2022-08-03T15:49:13.472Z,25.68
2022-08-03T15:54:17.568Z,25.73
2022-08-03T15:59:22.927Z,25.61
2022-08-03T16:04:27.179Z,25.73
2022-08-03T16:09:43.180Z,25.90
2022-08-03T16:14:52.867Z,25.92
2022-08-03T16:19:57.133Z,25.51
2022-08-03T16:25:02.054Z,25.38
2022-08-03T16:30:09.507Z,25.11
2022-08-03T16:35:19.417Z,24.84
2022-08-03T16:40:26.185Z,24.43
2022-08-03T16:45:31.672Z,24.20
2022-08-03T16:50:37.103Z,24.02
2022-08-03T16:55:48.799Z,23.75
2022-08-03T17:00:59.417Z,23.51
2022-08-03T17:06:04.251Z,23.19
2022-08-03T17:11:08.572Z,22.72
2022-08-03T17:16:15.344Z,22.59
2022-08-03T17:21:24.504Z,22.35
2022-08-03T17:26:38.621Z,22.17
2022-08-03T17:31:49.874Z,21.85
2022-08-03T17:37:17.771Z,21.73
2022-08-03T17:42:38.792Z,21.47
2022-08-03T17:47:44.062Z,21.36
2022-08-03T17:52:50.049Z,21.19
2022-08-03T17:58:03.348Z,21.02
2022-08-03T18:03:22.919Z,20.72
2022-08-03T18:08:28.761Z,20.55
2022-08-03T18:13:41.038Z,20.47
2022-08-03T18:18:48.725Z,20.38
2022-08-03T18:23:56.237Z,20.29
2022-08-03T18:29:04.682Z,20.05
2022-08-03T18:34:32.914Z,20.01
2022-08-03T18:39:49.582Z,19.84
2022-08-03T18:50:26.260Z,19.62
2022-08-03T18:55:35.460Z,19.42
2022-08-03T19:00:54.744Z,19.25
2022-08-03T19:06:13.385Z,19.04
2022-08-03T19:16:51.242Z,18.90
2022-08-03T19:21:57.598Z,18.93
2022-08-03T19:27:02.619Z,18.95
2022-08-03T19:32:08.840Z,18.98
2022-08-03T19:37:15.686Z,18.92
2022-08-03T19:42:32.194Z,18.80
2022-08-03T19:47:41.217Z,18.85
2022-08-03T19:52:49.171Z,18.86
2022-08-03T19:57:59.211Z,18.78
2022-08-03T20:03:03.625Z,18.77
2022-08-03T20:08:09.178Z,18.45
2022-08-03T20:13:19.355Z,18.52
2022-08-03T20:18:23.689Z,18.34
2022-08-03T20:23:37.258Z,18.35
2022-08-03T20:28:50.484Z,18.25
2022-08-03T20:33:55.219Z,18.16
2022-08-03T20:39:01.103Z,18.33
2022-08-03T20:44:11.648Z,18.21
2022-08-03T20:49:19.746Z,18.35
2022-08-03T20:54:29.477Z,18.26
2022-08-03T20:59:50.205Z,18.13
2022-08-03T21:04:55.275Z,18.10
2022-08-03T21:10:04.010Z,17.90
2022-08-03T21:12:59.143Z,19.82
2022-08-03T21:13:01.458Z,18.92
2022-08-03T21:16:06.583Z,17.64
2022-08-03T21:20:44.395Z,17.69
2022-08-03T21:25:51.812Z,17.70
2022-08-03T21:30:56.230Z,17.67
2022-08-03T21:36:03.478Z,17.76
2022-08-03T21:41:09.366Z,17.84
2022-08-03T21:46:15.590Z,17.77
2022-08-03T21:51:21.212Z,17.57
2022-08-03T21:56:29.647Z,17.29
2022-08-03T22:01:35.605Z,17.33
2022-08-03T22:06:42.471Z,17.29
2022-08-03T22:11:50.948Z,17.30
2022-08-03T22:16:56.425Z,17.27
2022-08-03T22:22:01.345Z,17.14
2022-08-03T22:27:24.318Z,17.35
2022-08-03T22:32:29.651Z,17.04
2022-08-03T22:37:34.447Z,16.88
2022-08-03T22:42:42.177Z,16.92
2022-08-03T22:47:47.960Z,17.02
2022-08-03T22:52:52.461Z,16.97
2022-08-03T22:57:58.544Z,17.07
2022-08-03T23:03:07.627Z,17.08
2022-08-03T23:08:14.025Z,16.95
2022-08-03T23:13:21.108Z,16.89
2022-08-03T23:18:32.020Z,16.93
2022-08-03T23:23:44.623Z,16.91
2022-08-03T23:28:51.123Z,16.78
2022-08-03T23:34:16.541Z,16.61
2022-08-03T23:39:20.950Z,16.78
2022-08-03T23:44:28.423Z,16.67
2022-08-03T23:49:32.386Z,16.49
2022-08-03T23:54:46.929Z,16.47
